sensor_id;sensor_type;location;lat;lon;timestamp;P1;durP1;ratioP1;P2;durP2;ratioP2
35757;SDS011;21879;50.110;18.900;2023-02-01T00:06:08;9.00;;;4.30;;
35757;SDS011;21879;50.110;18.900;2023-02-01T00:16:35;7.70;;;4.30;;
35757;SDS011;21879;50.110;18.900;2023-02-01T00:27:03;5.80;;;3.20;;
35757;SDS011;21879;50.110;18.900;2023-02-01T00:37:31;6.40;;;3.20;;
35757;SDS011;21879;50.110;18.900;2023-02-01T00:47:59;6.60;;;3.30;;
35757;SDS011;21879;50.110;18.900;2023-02-01T00:58:27;5.00;;;3.20;;
35757;SDS011;21879;50.110;18.900;2023-02-01T01:08:55;3.70;;;2.20;;
35757;SDS011;21879;50.110;18.900;2023-02-01T01:19:24;5.00;;;3.60;;
35757;SDS011;21879;50.110;18.900;2023-02-01T01:29:52;0.90;;;0.60;;
35757;SDS011;21879;50.110;18.900;2023-02-01T01:40:21;1.80;;;0.50;;
35757;SDS011;21879;50.110;18.900;2023-02-01T01:50:50;1.70;;;0.70;;
35757;SDS011;21879;50.110;18.900;2023-02-01T02:01:21;1.40;;;0.50;;
35757;SDS011;21879;50.110;18.900;2023-02-01T02:11:50;1.20;;;0.50;;
35757;SDS011;21879;50.110;18.900;2023-02-01T02:22:30;1.20;;;0.40;;
35757;SDS011;21879;50.110;18.900;2023-02-01T02:44:09;2.30;;;0.70;;
35757;SDS011;21879;50.110;18.900;2023-02-01T02:55:03;4.20;;;1.40;;
35757;SDS011;21879;50.110;18.900;2023-02-01T03:05:34;2.20;;;0.60;;
35757;SDS011;21879;50.110;18.900;2023-02-01T03:16:06;3.90;;;0.70;;
35757;SDS011;21879;50.110;18.900;2023-02-01T03:26:51;1.10;;;0.50;;
35757;SDS011;21879;50.110;18.900;2023-02-01T03:37:26;0.80;;;0.40;;
35757;SDS011;21879;50.110;18.900;2023-02-01T03:47:55;1.70;;;0.40;;
35757;SDS011;21879;50.110;18.900;2023-02-01T03:58:27;1.50;;;0.50;;
35757;SDS011;21879;50.110;18.900;2023-02-01T04:08:55;4.30;;;0.80;;
35757;SDS011;21879;50.110;18.900;2023-02-01T04:19:23;7.00;;;4.20;;
35757;SDS011;21879;50.110;18.900;2023-02-01T04:29:51;5.50;;;4.20;;
35757;SDS011;21879;50.110;18.900;2023-02-01T04:40:22;6.10;;;2.60;;
35757;SDS011;21879;50.110;18.900;2023-02-01T04:50:51;5.20;;;2.10;;
35757;SDS011;21879;50.110;18.900;2023-02-01T05:01:19;7.60;;;4.60;;
35757;SDS011;21879;50.110;18.900;2023-02-01T05:11:47;7.60;;;4.30;;
35757;SDS011;21879;50.110;18.900;2023-02-01T05:22:32;6.20;;;4.00;;
35757;SDS011;21879;50.110;18.900;2023-02-01T05:33:00;10.00;;;3.30;;
35757;SDS011;21879;50.110;18.900;2023-02-01T05:43:28;11.60;;;5.40;;
35757;SDS011;21879;50.110;18.900;2023-02-01T05:53:55;11.50;;;4.90;;
35757;SDS011;21879;50.110;18.900;2023-02-01T06:04:23;12.40;;;4.70;;
35757;SDS011;21879;50.110;18.900;2023-02-01T06:14:51;9.10;;;4.10;;
35757;SDS011;21879;50.110;18.900;2023-02-01T06:25:19;7.30;;;3.60;;
35757;SDS011;21879;50.110;18.900;2023-02-01T06:35:47;7.00;;;3.80;;
35757;SDS011;21879;50.110;18.900;2023-02-01T06:46:22;7.10;;;3.30;;
35757;SDS011;21879;50.110;18.900;2023-02-01T06:56:50;15.10;;;7.90;;
35757;SDS011;21879;50.110;18.900;2023-02-01T07:07:17;18.40;;;12.60;;
35757;SDS011;21879;50.110;18.900;2023-02-01T07:17:47;7.00;;;3.60;;
35757;SDS011;21879;50.110;18.900;2023-02-01T07:28:14;5.60;;;3.20;;
35757;SDS011;21879;50.110;18.900;2023-02-01T07:38:42;8.50;;;5.00;;
35757;SDS011;21879;50.110;18.900;2023-02-01T07:49:11;7.30;;;3.70;;
35757;SDS011;21879;50.110;18.900;2023-02-01T07:59:38;10.40;;;4.10;;
35757;SDS011;21879;50.110;18.900;2023-02-01T08:10:26;8.70;;;5.40;;
35757;SDS011;21879;50.110;18.900;2023-02-01T08:20:54;10.10;;;5.30;;
35757;SDS011;21879;50.110;18.900;2023-02-01T08:31:22;10.90;;;6.90;;
35757;SDS011;21879;50.110;18.900;2023-02-01T08:41:52;10.70;;;6.10;;
35757;SDS011;21879;50.110;18.900;2023-02-01T08:52:33;8.00;;;6.20;;
35757;SDS011;21879;50.110;18.900;2023-02-01T09:03:02;12.50;;;5.60;;
35757;SDS011;21879;50.110;18.900;2023-02-01T09:13:29;6.30;;;3.40;;
35757;SDS011;21879;50.110;18.900;2023-02-01T09:23:58;10.30;;;7.20;;
35757;SDS011;21879;50.110;18.900;2023-02-01T09:34:25;4.30;;;2.50;;
35757;SDS011;21879;50.110;18.900;2023-02-01T09:45:00;9.10;;;6.30;;
35757;SDS011;21879;50.110;18.900;2023-02-01T09:55:49;18.10;;;7.00;;
35757;SDS011;21879;50.110;18.900;2023-02-01T10:06:35;9.10;;;4.10;;
35757;SDS011;21879;50.110;18.900;2023-02-01T10:17:12;5.10;;;3.00;;
35757;SDS011;21879;50.110;18.900;2023-02-01T10:27:51;10.30;;;4.90;;
35757;SDS011;21879;50.110;18.900;2023-02-01T10:38:21;10.20;;;5.20;;
35757;SDS011;21879;50.110;18.900;2023-02-01T10:48:54;13.60;;;8.40;;
35757;SDS011;21879;50.110;18.900;2023-02-01T10:59:27;12.20;;;7.10;;
35757;SDS011;21879;50.110;18.900;2023-02-01T11:09:57;12.80;;;6.00;;
35757;SDS011;21879;50.110;18.900;2023-02-01T11:31:07;12.40;;;6.00;;
35757;SDS011;21879;50.110;18.900;2023-02-01T11:41:42;13.00;;;5.10;;
35757;SDS011;21879;50.110;18.900;2023-02-01T11:52:33;12.20;;;6.50;;
35757;SDS011;21879;50.110;18.900;2023-02-01T12:03:22;13.40;;;7.80;;
35757;SDS011;21879;50.110;18.900;2023-02-01T12:14:04;15.60;;;10.70;;
35757;SDS011;21879;50.110;18.900;2023-02-01T12:35:38;9.70;;;4.40;;
35757;SDS011;21879;50.110;18.900;2023-02-01T12:46:16;5.70;;;4.10;;
35757;SDS011;21879;50.110;18.900;2023-02-01T12:56:47;6.20;;;3.20;;
35757;SDS011;21879;50.110;18.900;2023-02-01T13:07:21;8.70;;;4.50;;
35757;SDS011;21879;50.110;18.900;2023-02-01T13:17:54;11.90;;;5.80;;
35757;SDS011;21879;50.110;18.900;2023-02-01T13:28:25;9.70;;;4.10;;
35757;SDS011;21879;50.110;18.900;2023-02-01T13:50:11;7.40;;;3.00;;
35757;SDS011;21879;50.110;18.900;2023-02-01T14:00:50;8.40;;;3.40;;
35757;SDS011;21879;50.110;18.900;2023-02-01T14:11:44;6.70;;;3.40;;
35757;SDS011;21879;50.110;18.900;2023-02-01T14:32:59;10.80;;;5.50;;
35757;SDS011;21879;50.110;18.900;2023-02-01T14:54:49;9.10;;;4.40;;
35757;SDS011;21879;50.110;18.900;2023-02-01T15:05:28;13.10;;;5.70;;
35757;SDS011;21879;50.110;18.900;2023-02-01T15:16:01;9.60;;;5.80;;
35757;SDS011;21879;50.110;18.900;2023-02-01T15:26:33;13.90;;;8.30;;
35757;SDS011;21879;50.110;18.900;2023-02-01T15:37:05;19.30;;;9.90;;
35757;SDS011;21879;50.110;18.900;2023-02-01T15:47:32;9.10;;;5.50;;
35757;SDS011;21879;50.110;18.900;2023-02-01T15:58:01;8.90;;;5.30;;
35757;SDS011;21879;50.110;18.900;2023-02-01T16:08:33;12.40;;;6.80;;
35757;SDS011;21879;50.110;18.900;2023-02-01T16:29:28;33.70;;;19.20;;
35757;SDS011;21879;50.110;18.900;2023-02-01T16:39:55;24.60;;;14.60;;
35757;SDS011;21879;50.110;18.900;2023-02-01T16:50:24;15.20;;;9.50;;
35757;SDS011;21879;50.110;18.900;2023-02-01T17:00:52;11.50;;;6.40;;
35757;SDS011;21879;50.110;18.900;2023-02-01T17:11:20;13.10;;;5.40;;
35757;SDS011;21879;50.110;18.900;2023-02-01T17:21:49;8.60;;;5.50;;
35757;SDS011;21879;50.110;18.900;2023-02-01T17:32:22;21.30;;;9.30;;
35757;SDS011;21879;50.110;18.900;2023-02-01T17:42:52;18.80;;;11.50;;
35757;SDS011;21879;50.110;18.900;2023-02-01T17:53:21;24.50;;;13.30;;
35757;SDS011;21879;50.110;18.900;2023-02-01T18:03:49;22.70;;;12.20;;
35757;SDS011;21879;50.110;18.900;2023-02-01T18:14:17;19.90;;;10.20;;
35757;SDS011;21879;50.110;18.900;2023-02-01T18:24:44;18.90;;;8.80;;
35757;SDS011;21879;50.110;18.900;2023-02-01T18:35:17;17.70;;;9.10;;
35757;SDS011;21879;50.110;18.900;2023-02-01T18:45:47;16.20;;;8.10;;
35757;SDS011;21879;50.110;18.900;2023-02-01T18:56:16;16.60;;;8.80;;
35757;SDS011;21879;50.110;18.900;2023-02-01T19:06:44;12.30;;;6.70;;
35757;SDS011;21879;50.110;18.900;2023-02-01T19:27:39;16.10;;;8.40;;
35757;SDS011;21879;50.110;18.900;2023-02-01T19:38:07;11.60;;;5.70;;
35757;SDS011;21879;50.110;18.900;2023-02-01T19:48:35;11.70;;;4.90;;
35757;SDS011;21879;50.110;18.900;2023-02-01T19:59:02;12.20;;;5.20;;
35757;SDS011;21879;50.110;18.900;2023-02-01T20:09:30;18.20;;;12.00;;
35757;SDS011;21879;50.110;18.900;2023-02-01T20:30:26;11.30;;;5.50;;
35757;SDS011;21879;50.110;18.900;2023-02-01T20:40:54;14.80;;;5.80;;
35757;SDS011;21879;50.110;18.900;2023-02-01T20:51:28;12.40;;;3.90;;
35757;SDS011;21879;50.110;18.900;2023-02-01T21:01:56;8.40;;;4.30;;
35757;SDS011;21879;50.110;18.900;2023-02-01T21:12:26;8.70;;;4.70;;
35757;SDS011;21879;50.110;18.900;2023-02-01T21:22:54;13.60;;;5.90;;
35757;SDS011;21879;50.110;18.900;2023-02-01T21:33:22;13.20;;;5.60;;
35757;SDS011;21879;50.110;18.900;2023-02-01T21:43:50;12.30;;;6.00;;
35757;SDS011;21879;50.110;18.900;2023-02-01T21:54:17;15.60;;;6.70;;
35757;SDS011;21879;50.110;18.900;2023-02-01T22:04:45;10.60;;;5.90;;
35757;SDS011;21879;50.110;18.900;2023-02-01T22:15:14;9.50;;;4.20;;
35757;SDS011;21879;50.110;18.900;2023-02-01T22:25:42;13.40;;;5.10;;
35757;SDS011;21879;50.110;18.900;2023-02-01T22:36:10;8.00;;;4.30;;
35757;SDS011;21879;50.110;18.900;2023-02-01T22:46:39;10.10;;;4.80;;
35757;SDS011;21879;50.110;18.900;2023-02-01T22:57:06;9.80;;;3.90;;
35757;SDS011;21879;50.110;18.900;2023-02-01T23:07:34;8.60;;;4.60;;
35757;SDS011;21879;50.110;18.900;2023-02-01T23:18:02;6.40;;;3.80;;
35757;SDS011;21879;50.110;18.900;2023-02-01T23:28:31;8.80;;;3.50;;
35757;SDS011;21879;50.110;18.900;2023-02-01T23:38:59;8.70;;;5.00;;
35757;SDS011;21879;50.110;18.900;2023-02-01T23:49:26;5.50;;;3.80;;
35757;SDS011;21879;50.110;18.900;2023-02-01T23:59:56;5.00;;;2.30;;
